createdAt,value
2019-02-11T00:00:58.694Z,2.65
2019-02-11T00:03:27.786Z,2.61
2019-02-11T00:05:57.004Z,2.65
2019-02-11T00:08:26.107Z,2.55
2019-02-11T00:10:55.210Z,2.49
2019-02-11T00:13:24.292Z,2.51
2019-02-11T00:15:53.395Z,2.44
2019-02-11T00:18:22.466Z,2.47
2019-02-11T00:20:51.562Z,2.42
2019-02-11T00:23:20.646Z,2.36
2019-02-11T00:25:49.740Z,2.30
2019-02-11T00:28:18.834Z,2.27
2019-02-11T00:30:47.950Z,2.27
2019-02-11T00:33:17.027Z,2.28
2019-02-11T00:35:46.122Z,2.25
2019-02-11T00:38:15.208Z,2.20
2019-02-11T00:40:44.316Z,2.19
2019-02-11T00:43:18.859Z,2.17
2019-02-11T00:45:44.215Z,2.10
2019-02-11T00:48:13.297Z,2.15
2019-02-11T00:50:42.391Z,2.15
2019-02-11T00:53:11.500Z,2.12
2019-02-11T00:55:40.579Z,2.20
2019-02-11T00:58:09.684Z,2.13
2019-02-11T01:00:38.818Z,2.25
2019-02-11T01:03:07.878Z,2.19
2019-02-11T01:05:36.973Z,2.23
2019-02-11T01:08:06.085Z,2.23
2019-02-11T01:10:35.161Z,2.23
2019-02-11T01:13:04.271Z,2.26
2019-02-11T01:15:33.353Z,2.28
2019-02-11T01:18:02.457Z,2.15
2019-02-11T01:20:31.543Z,2.17
2019-02-11T01:23:00.642Z,2.20
2019-02-11T01:25:29.753Z,2.23
2019-02-11T01:27:58.834Z,2.21
2019-02-11T01:30:27.919Z,2.19
2019-02-11T01:32:57.027Z,2.17
2019-02-11T01:35:26.111Z,2.18
2019-02-11T01:37:55.211Z,2.06
2019-02-11T01:40:24.332Z,2.10
2019-02-11T01:42:53.425Z,2.09
2019-02-11T01:45:22.498Z,2.07
2019-02-11T01:47:51.594Z,2.10
2019-02-11T01:50:20.678Z,2.16
2019-02-11T01:52:49.781Z,2.13
2019-02-11T01:55:18.862Z,2.10
2019-02-11T01:57:47.967Z,2.12
2019-02-11T02:00:17.050Z,2.12
2019-02-11T02:02:46.133Z,2.10
2019-02-11T02:05:15.679Z,2.17
2019-02-11T02:07:44.764Z,2.11
2019-02-11T02:10:14.817Z,2.08
2019-02-11T02:12:43.909Z,2.11
2019-02-11T02:15:13.728Z,2.09
2019-02-11T02:17:42.809Z,2.15
2019-02-11T02:20:12.909Z,2.13
2019-02-11T02:22:41.987Z,2.19
2019-02-11T02:25:11.146Z,2.12
2019-02-11T02:27:40.223Z,2.24
2019-02-11T02:30:10.210Z,2.20
2019-02-11T02:32:39.284Z,2.17
2019-02-11T02:35:08.382Z,2.17
2019-02-11T02:37:37.467Z,2.11
2019-02-11T02:40:06.675Z,2.11
2019-02-11T02:42:35.755Z,2.12
2019-02-11T02:45:05.719Z,2.09
2019-02-11T02:47:34.804Z,2.20
2019-02-11T02:50:04.119Z,2.08
2019-02-11T02:52:33.194Z,2.02
2019-02-11T02:55:02.309Z,1.88
2019-02-11T02:57:31.407Z,1.99
2019-02-11T03:00:00.665Z,1.95
2019-02-11T03:02:29.778Z,1.89
2019-02-11T03:04:58.904Z,1.80
2019-02-11T03:07:27.989Z,1.58
2019-02-11T03:09:57.085Z,1.61
2019-02-11T03:12:26.166Z,1.67
2019-02-11T03:14:55.282Z,1.63
2019-02-11T03:17:24.377Z,1.82
2019-02-11T03:19:53.475Z,1.65
2019-02-11T03:22:22.569Z,1.79
2019-02-11T03:24:51.673Z,1.77
2019-02-11T03:27:20.784Z,1.58
2019-02-11T03:29:49.901Z,1.55
2019-02-11T03:32:18.977Z,1.45
2019-02-11T03:34:48.052Z,1.40
2019-02-11T03:37:17.163Z,1.36
2019-02-11T03:39:46.252Z,1.49
2019-02-11T03:42:15.368Z,1.60
2019-02-11T03:44:44.449Z,1.55
2019-02-11T03:47:13.551Z,1.46
2019-02-11T03:49:42.653Z,1.54
2019-02-11T03:52:11.739Z,1.56
2019-02-11T03:54:40.822Z,1.67
2019-02-11T03:57:09.927Z,1.64
2019-02-11T03:59:39.014Z,1.64
2019-02-11T04:02:08.121Z,1.64
2019-02-11T04:04:37.254Z,1.57
2019-02-11T04:07:06.343Z,1.52
2019-02-11T04:09:35.435Z,1.52
2019-02-11T04:12:04.542Z,1.56
2019-02-11T04:14:33.625Z,1.59
2019-02-11T04:17:02.723Z,1.64
2019-02-11T04:19:31.808Z,1.71
2019-02-11T04:22:10.477Z,1.63
2019-02-11T04:24:39.557Z,1.65
2019-02-11T04:27:08.659Z,1.64
2019-02-11T04:29:37.733Z,1.78
2019-02-11T04:32:06.841Z,1.75
2019-02-11T04:34:35.913Z,1.69
2019-02-11T04:37:05.022Z,1.75
2019-02-11T04:39:34.099Z,1.69
2019-02-11T04:42:03.211Z,1.71
2019-02-11T04:44:34.044Z,1.72
2019-02-11T04:47:03.139Z,1.77
2019-02-11T04:49:32.228Z,1.76
2019-02-11T04:52:01.332Z,1.84
2019-02-11T04:54:30.416Z,1.86
2019-02-11T04:56:59.522Z,1.97
2019-02-11T04:59:28.667Z,1.98
2019-02-11T05:01:57.727Z,1.95
2019-02-11T05:04:26.822Z,1.97
2019-02-11T05:06:55.921Z,2.01
2019-02-11T05:09:25.002Z,2.00
2019-02-11T05:11:54.115Z,2.11
2019-02-11T05:14:23.193Z,2.07
2019-02-11T05:16:52.300Z,2.04
2019-02-11T05:19:21.370Z,2.10
2019-02-11T05:21:50.449Z,2.17
2019-02-11T05:24:19.553Z,2.09
2019-02-11T05:26:48.643Z,2.12
2019-02-11T05:29:17.760Z,2.19
2019-02-11T05:31:46.857Z,2.30
2019-02-11T05:34:15.985Z,2.21
2019-02-11T05:36:45.080Z,2.17
2019-02-11T05:39:14.179Z,2.12
2019-02-11T05:41:43.259Z,2.10
2019-02-11T05:44:12.353Z,2.13
2019-02-11T05:46:41.429Z,2.09
2019-02-11T05:49:10.537Z,2.15
2019-02-11T05:51:39.619Z,2.15
2019-02-11T05:54:08.716Z,2.07
2019-02-11T05:56:37.800Z,2.09
2019-02-11T05:59:06.967Z,2.13
2019-02-11T06:01:36.055Z,2.12
2019-02-11T06:04:05.171Z,2.13
2019-02-11T06:06:34.245Z,2.13
2019-02-11T06:09:04.433Z,2.16
2019-02-11T06:11:33.518Z,2.10
2019-02-11T06:14:02.628Z,2.26
2019-02-11T06:16:50.789Z,2.11
2019-02-11T06:19:19.898Z,2.09
2019-02-11T06:21:48.970Z,2.12
2019-02-11T06:24:18.070Z,2.12
2019-02-11T06:26:47.149Z,2.09
2019-02-11T06:29:16.254Z,2.04
2019-02-11T06:31:45.324Z,2.12
2019-02-11T06:34:14.431Z,2.14
2019-02-11T06:36:43.516Z,2.12
2019-02-11T06:39:12.630Z,2.11
2019-02-11T06:41:41.715Z,2.08
2019-02-11T06:44:10.816Z,2.09
2019-02-11T06:46:39.897Z,2.08
2019-02-11T06:49:09.004Z,2.08
2019-02-11T06:51:38.081Z,2.21
2019-02-11T06:54:07.228Z,2.17
2019-02-11T06:56:36.245Z,2.13
2019-02-11T06:59:05.342Z,2.11
2019-02-11T07:01:34.484Z,2.07
2019-02-11T07:04:03.617Z,2.11
2019-02-11T07:06:32.702Z,2.10
2019-02-11T07:09:01.797Z,2.15
2019-02-11T07:11:30.875Z,2.17
2019-02-11T07:13:59.970Z,2.14
2019-02-11T07:16:29.043Z,2.17
2019-02-11T07:18:58.150Z,2.21
2019-02-11T07:21:27.222Z,2.17
2019-02-11T07:23:56.330Z,2.20
2019-02-11T07:26:25.408Z,2.16
2019-02-11T07:28:54.513Z,2.20
2019-02-11T07:31:23.600Z,2.15
2019-02-11T07:33:52.676Z,2.19
2019-02-11T07:36:21.775Z,2.21
2019-02-11T07:38:50.849Z,2.35
2019-02-11T07:41:21.594Z,2.44
2019-02-11T07:44:09.668Z,2.41
2019-02-11T07:46:44.421Z,2.43
2019-02-11T07:49:13.520Z,2.47
2019-02-11T07:51:42.678Z,2.49
2019-02-11T07:54:12.319Z,2.50
2019-02-11T07:56:41.542Z,2.46
2019-02-11T07:59:10.647Z,2.49
2019-02-11T08:01:39.730Z,2.57
2019-02-11T08:04:08.830Z,2.52
2019-02-11T08:06:37.925Z,2.52
2019-02-11T08:09:08.662Z,2.50
2019-02-11T08:11:37.758Z,2.66
2019-02-11T08:14:06.836Z,2.64
2019-02-11T08:16:35.940Z,2.70
2019-02-11T08:19:05.019Z,2.61
2019-02-11T08:21:34.131Z,2.60
2019-02-11T08:24:03.225Z,2.68
2019-02-11T08:26:32.326Z,2.79
2019-02-11T08:29:01.405Z,2.88
2019-02-11T08:31:30.505Z,3.05
2019-02-11T08:33:59.581Z,2.98
2019-02-11T08:36:28.686Z,2.89
2019-02-11T08:38:57.775Z,3.09
2019-02-11T08:41:26.869Z,3.25
2019-02-11T08:43:55.946Z,3.28
2019-02-11T08:46:25.088Z,3.20
2019-02-11T08:48:54.125Z,2.97
2019-02-11T08:51:23.221Z,2.78
2019-02-11T08:53:52.302Z,2.79
2019-02-11T08:56:21.409Z,2.74
2019-02-11T08:58:50.483Z,2.78
2019-02-11T09:01:19.591Z,2.61
2019-02-11T09:03:48.680Z,2.69
2019-02-11T09:06:18.087Z,2.65
2019-02-11T09:08:47.162Z,2.70
2019-02-11T09:11:16.262Z,3.01
2019-02-11T09:13:45.344Z,2.93
2019-02-11T09:16:14.450Z,3.15
2019-02-11T09:18:43.524Z,3.34
2019-02-11T09:21:12.636Z,3.30
2019-02-11T09:23:41.709Z,3.40
2019-02-11T09:26:10.813Z,3.71
2019-02-11T09:28:39.889Z,3.78
2019-02-11T09:31:08.991Z,4.37
2019-02-11T09:33:38.060Z,5.03
2019-02-11T09:36:07.159Z,7.80
2019-02-11T09:38:36.318Z,6.68
2019-02-11T09:41:05.398Z,5.63
2019-02-11T09:43:34.510Z,5.07
2019-02-11T09:46:04.219Z,4.58
2019-02-11T09:48:33.357Z,4.16
2019-02-11T09:51:03.320Z,4.05
2019-02-11T09:53:32.618Z,4.12
2019-02-11T09:56:01.699Z,4.09
2019-02-11T09:58:30.807Z,4.17
2019-02-11T10:00:59.953Z,4.41
2019-02-11T10:03:29.049Z,5.70
2019-02-11T10:05:58.153Z,8.49
2019-02-11T10:08:27.255Z,10.56
2019-02-11T10:10:56.334Z,9.50
2019-02-11T10:13:25.460Z,10.04
2019-02-11T10:15:54.540Z,10.88
2019-02-11T10:18:23.632Z,8.42
2019-02-11T10:20:52.710Z,7.15
2019-02-11T10:23:21.829Z,7.10
2019-02-11T10:25:50.902Z,6.09
2019-02-11T10:28:20.007Z,5.58
2019-02-11T10:30:49.089Z,5.41
2019-02-11T10:33:18.198Z,5.01
2019-02-11T10:35:47.277Z,4.92
2019-02-11T10:38:16.377Z,4.64
2019-02-11T10:40:45.462Z,4.50
2019-02-11T10:43:14.562Z,4.56
2019-02-11T10:45:43.641Z,4.49
2019-02-11T10:48:13.152Z,4.56
2019-02-11T10:50:42.234Z,5.01
2019-02-11T10:53:11.333Z,5.35
2019-02-11T10:55:40.410Z,6.10
2019-02-11T10:58:09.604Z,7.04
2019-02-11T11:00:39.457Z,7.37
2019-02-11T11:03:08.572Z,8.69
2019-02-11T11:05:37.671Z,7.86
2019-02-11T11:08:06.775Z,6.38
2019-02-11T11:10:36.490Z,5.93
2019-02-11T11:13:05.718Z,5.58
2019-02-11T11:15:34.785Z,5.27
2019-02-11T11:18:03.887Z,5.06
2019-02-11T11:20:32.971Z,4.72
2019-02-11T11:23:02.079Z,4.49
2019-02-11T11:25:31.157Z,4.44
2019-02-11T11:28:00.263Z,4.44
2019-02-11T11:30:29.447Z,4.43
2019-02-11T11:32:58.536Z,4.59
2019-02-11T11:35:27.637Z,4.78
2019-02-11T11:37:56.736Z,4.62
2019-02-11T11:40:26.738Z,4.65
2019-02-11T11:42:55.822Z,4.43
2019-02-11T11:45:24.926Z,4.38
2019-02-11T11:47:54.009Z,4.47
2019-02-11T11:50:23.102Z,4.80
2019-02-11T11:52:52.177Z,4.70
2019-02-11T11:55:21.794Z,6.17
2019-02-11T11:57:50.881Z,7.32
2019-02-11T12:00:24.857Z,7.03
2019-02-11T12:03:04.098Z,7.30
2019-02-11T12:05:25.423Z,7.74
2019-02-11T12:07:55.815Z,9.57
2019-02-11T12:10:24.923Z,11.71
2019-02-11T12:12:54.028Z,12.37
2019-02-11T12:15:23.881Z,12.24
2019-02-11T12:17:53.188Z,10.36
2019-02-11T12:20:22.295Z,9.12
2019-02-11T12:22:51.372Z,7.52
2019-02-11T12:25:20.477Z,6.61
2019-02-11T12:27:49.552Z,9.98
2019-02-11T12:30:21.106Z,9.66
2019-02-11T12:32:53.997Z,8.97
2019-02-11T12:35:21.087Z,8.55
2019-02-11T12:37:50.164Z,8.65
2019-02-11T12:40:19.348Z,11.13
2019-02-11T12:42:48.447Z,15.88
2019-02-11T12:45:19.022Z,12.08
2019-02-11T12:47:48.121Z,10.92
2019-02-11T12:50:17.459Z,10.44
2019-02-11T12:52:46.558Z,11.96
2019-02-11T12:55:15.759Z,15.64
2019-02-11T12:57:44.844Z,15.86
2019-02-11T13:00:17.290Z,15.00
2019-02-11T13:02:46.991Z,12.83
2019-02-11T13:05:16.264Z,11.97
2019-02-11T13:07:45.485Z,10.41
2019-02-11T13:10:16.153Z,9.35
2019-02-11T13:12:45.527Z,8.01
2019-02-11T13:15:33.635Z,7.10
2019-02-11T13:17:45.716Z,6.27
2019-02-11T13:20:14.901Z,6.44
2019-02-11T13:22:43.968Z,6.25
2019-02-11T13:25:14.179Z,6.10
2019-02-11T13:27:43.388Z,6.69
2019-02-11T13:30:17.526Z,6.65
2019-02-11T13:32:46.598Z,6.41
2019-02-11T13:35:15.709Z,6.51
2019-02-11T13:37:44.938Z,6.75
2019-02-11T13:40:14.342Z,6.56
2019-02-11T13:42:43.543Z,6.66
2019-02-11T13:45:14.453Z,6.32
2019-02-11T13:47:54.052Z,6.50
2019-02-11T13:50:19.400Z,6.44
2019-02-11T13:52:48.568Z,6.25
2019-02-11T13:55:17.658Z,6.55
2019-02-11T13:57:46.770Z,6.68
2019-02-11T14:00:22.422Z,6.51
2019-02-11T14:02:53.326Z,6.35
2019-02-11T14:05:22.612Z,6.16
2019-02-11T14:07:51.748Z,5.81
2019-02-11T14:10:20.854Z,5.63
2019-02-11T14:12:50.182Z,5.61
2019-02-11T14:15:20.860Z,5.56
2019-02-11T14:17:50.077Z,5.51
2019-02-11T14:20:21.038Z,5.35
2019-02-11T14:22:50.148Z,5.33
2019-02-11T14:25:39.268Z,5.46
2019-02-11T14:27:50.133Z,5.46
2019-02-11T14:30:20.128Z,5.57
2019-02-11T14:32:49.323Z,5.94
2019-02-11T14:35:18.549Z,6.21
2019-02-11T14:37:47.664Z,6.18
2019-02-11T14:40:16.898Z,6.08
2019-02-11T14:42:46.006Z,5.95
2019-02-11T14:47:44.324Z,5.41
2019-02-11T14:50:13.861Z,5.26
2019-02-11T14:52:42.962Z,5.34
2019-02-11T14:55:12.156Z,5.24
2019-02-11T14:57:41.259Z,5.28
2019-02-11T15:00:16.326Z,5.34
2019-02-11T15:02:45.430Z,5.16
2019-02-11T15:05:14.747Z,5.06
2019-02-11T15:07:43.843Z,5.09
2019-02-11T15:10:12.953Z,5.16
2019-02-11T15:12:42.049Z,5.27
2019-02-11T15:15:11.245Z,5.21
2019-02-11T15:17:40.714Z,5.05
2019-02-11T15:20:11.417Z,5.13
2019-02-11T15:22:40.511Z,4.96
2019-02-11T15:25:11.624Z,4.86
2019-02-11T15:27:40.705Z,4.89
2019-02-11T15:30:12.060Z,4.86
2019-02-11T15:32:41.161Z,4.95
2019-02-11T15:35:10.376Z,5.02
2019-02-11T15:37:39.466Z,4.93
2019-02-11T15:40:10.751Z,4.83
2019-02-11T15:42:39.851Z,4.77
2019-02-11T15:45:11.069Z,4.85
2019-02-11T15:47:40.173Z,4.82
2019-02-11T15:50:10.619Z,4.88
2019-02-11T15:52:39.778Z,4.80
2019-02-11T15:55:10.695Z,4.77
2019-02-11T15:57:39.798Z,4.72
2019-02-11T16:00:11.343Z,4.82
2019-02-11T16:02:40.440Z,4.78
2019-02-11T16:05:15.777Z,4.84
2019-02-11T16:07:40.691Z,4.84
2019-02-11T16:10:11.343Z,4.81
2019-02-11T16:12:40.567Z,4.83
2019-02-11T16:15:09.681Z,4.65
2019-02-11T16:17:38.761Z,4.69
2019-02-11T16:20:08.801Z,4.65
2019-02-11T16:22:37.897Z,4.60
2019-02-11T16:25:08.554Z,4.56
2019-02-11T16:27:37.635Z,4.66
2019-02-11T16:30:08.318Z,4.57
2019-02-11T16:32:37.398Z,4.45
2019-02-11T16:35:07.887Z,4.39
2019-02-11T16:37:36.964Z,4.33
2019-02-11T16:40:07.981Z,4.05
2019-02-11T16:42:37.053Z,3.89
2019-02-11T16:45:06.585Z,3.83
2019-02-11T16:47:35.664Z,3.71
2019-02-11T16:50:05.326Z,3.70
2019-02-11T16:52:34.409Z,3.71
2019-02-11T16:55:03.555Z,3.75
2019-02-11T16:57:32.625Z,3.70
2019-02-11T17:00:01.717Z,3.62
2019-02-11T17:02:30.804Z,3.69
2019-02-11T17:04:59.933Z,3.59
2019-02-11T17:07:29.021Z,3.63
2019-02-11T17:09:58.112Z,3.63
2019-02-11T17:12:27.192Z,3.49
2019-02-11T17:14:56.296Z,3.45
2019-02-11T17:17:25.372Z,3.31
2019-02-11T17:19:54.469Z,3.15
2019-02-11T17:22:23.563Z,3.02
2019-02-11T17:24:52.669Z,2.91
2019-02-11T17:27:21.750Z,2.79
2019-02-11T17:29:50.842Z,2.75
2019-02-11T17:32:19.943Z,2.82
2019-02-11T17:34:49.023Z,2.83
2019-02-11T17:37:18.127Z,3.03
2019-02-11T17:39:47.209Z,2.81
2019-02-11T17:42:16.317Z,2.84
2019-02-11T17:44:45.399Z,2.63
2019-02-11T17:47:14.506Z,2.52
2019-02-11T17:49:43.588Z,2.49
2019-02-11T17:52:12.683Z,2.57
2019-02-11T17:54:41.757Z,2.44
2019-02-11T17:57:10.859Z,2.43
2019-02-11T17:59:40.239Z,2.36
2019-02-11T18:02:13.612Z,2.22
2019-02-11T18:04:42.882Z,2.32
2019-02-11T18:07:12.049Z,2.22
2019-02-11T18:09:42.506Z,2.07
2019-02-11T18:12:11.617Z,2.06
2019-02-11T18:14:40.710Z,2.09
2019-02-11T18:17:09.808Z,2.19
2019-02-11T18:19:38.890Z,2.19
2019-02-11T18:22:08.000Z,2.19
2019-02-11T18:24:37.086Z,2.22
2019-02-11T18:27:06.190Z,2.24
2019-02-11T18:29:35.277Z,2.16
2019-02-11T18:32:04.574Z,1.93
2019-02-11T18:34:33.659Z,1.96
2019-02-11T18:37:02.750Z,1.86
2019-02-11T18:39:31.828Z,1.72
2019-02-11T18:42:00.935Z,1.78
2019-02-11T18:44:30.013Z,1.64
2019-02-11T18:46:59.090Z,1.55
2019-02-11T18:49:34.324Z,1.58
2019-02-11T18:51:59.002Z,1.61
2019-02-11T18:54:28.108Z,1.66
2019-02-11T18:56:57.198Z,1.60
2019-02-11T18:59:26.306Z,1.46
2019-02-11T19:01:55.398Z,1.60
2019-02-11T19:04:24.529Z,1.54
2019-02-11T19:06:53.612Z,1.53
2019-02-11T19:09:22.791Z,1.47
2019-02-11T19:11:51.881Z,1.36
2019-02-11T19:14:20.986Z,1.35
2019-02-11T19:16:50.072Z,1.35
2019-02-11T19:19:19.179Z,1.26
2019-02-11T19:21:48.262Z,1.22
2019-02-11T19:24:17.366Z,1.17
2019-02-11T19:26:46.453Z,1.10
2019-02-11T19:29:15.552Z,0.94
2019-02-11T19:31:44.633Z,1.15
2019-02-11T19:34:13.738Z,1.07
2019-02-11T19:36:42.826Z,1.07
2019-02-11T19:39:11.976Z,1.02
2019-02-11T19:41:41.019Z,0.98
2019-02-11T19:44:10.126Z,1.11
2019-02-11T19:46:39.206Z,1.07
2019-02-11T19:49:08.302Z,0.77
2019-02-11T19:51:37.394Z,0.86
2019-02-11T19:54:06.502Z,0.77
2019-02-11T19:56:35.586Z,0.71
2019-02-11T19:59:04.687Z,0.59
2019-02-11T20:01:33.765Z,0.59
2019-02-11T20:04:07.512Z,0.76
2019-02-11T20:06:34.542Z,0.51
2019-02-11T20:09:04.647Z,0.52
2019-02-11T20:11:33.734Z,0.38
2019-02-11T20:14:02.840Z,0.28
2019-02-11T20:16:31.924Z,0.63
2019-02-11T20:19:01.017Z,0.35
2019-02-11T20:21:30.127Z,0.45
2019-02-11T20:23:59.211Z,0.32
2019-02-11T20:26:29.188Z,0.57
2019-02-11T20:28:58.273Z,0.52
2019-02-11T20:31:27.389Z,0.61
2019-02-11T20:33:56.480Z,0.32
2019-02-11T20:36:25.584Z,0.27
2019-02-11T20:38:54.667Z,0.15
2019-02-11T20:41:23.779Z,0.10
2019-02-11T20:43:52.873Z,0.31
2019-02-11T20:46:22.049Z,0.13
2019-02-11T20:48:51.134Z,0.06
2019-02-11T20:51:20.265Z,-0.03
2019-02-11T20:53:49.342Z,0.04
2019-02-11T20:56:18.456Z,-0.09
2019-02-11T20:58:47.629Z,0.13
2019-02-11T21:01:16.808Z,0.19
2019-02-11T21:03:46.017Z,0.41
2019-02-11T21:06:15.174Z,0.62
2019-02-11T21:08:44.256Z,0.65
2019-02-11T21:11:13.355Z,0.72
2019-02-11T21:13:42.439Z,0.71
2019-02-11T21:16:11.538Z,0.89
2019-02-11T21:18:40.631Z,1.11
2019-02-11T21:21:09.729Z,1.10
2019-02-11T21:23:38.804Z,1.17
2019-02-11T21:26:08.739Z,0.93
2019-02-11T21:28:37.979Z,0.72
2019-02-11T21:31:07.062Z,0.53
2019-02-11T21:33:36.158Z,0.57
2019-02-11T21:36:05.229Z,0.62
2019-02-11T21:38:34.501Z,0.62
2019-02-11T21:41:03.588Z,0.45
2019-02-11T21:43:32.982Z,0.51
2019-02-11T21:46:02.056Z,0.37
2019-02-11T21:48:31.179Z,0.24
2019-02-11T21:51:00.271Z,0.27
2019-02-11T21:53:29.375Z,0.26
2019-02-11T21:55:58.465Z,0.09
2019-02-11T21:58:27.584Z,-0.21
2019-02-11T22:01:02.140Z,-0.32
2019-02-11T22:03:27.508Z,0.06
2019-02-11T22:05:56.624Z,0.05
2019-02-11T22:08:25.736Z,-0.03
2019-02-11T22:10:54.821Z,-0.01
2019-02-11T22:13:23.934Z,0.21
2019-02-11T22:15:53.031Z,0.29
2019-02-11T22:18:22.116Z,0.45
2019-02-11T22:20:51.214Z,0.51
2019-02-11T22:23:20.295Z,0.54
2019-02-11T22:25:49.408Z,0.52
2019-02-11T22:28:18.486Z,0.54
2019-02-11T22:30:47.595Z,0.50
2019-02-11T22:33:16.675Z,0.43
2019-02-11T22:35:45.788Z,0.51
2019-02-11T22:38:14.872Z,0.48
2019-02-11T22:40:43.979Z,0.54
2019-02-11T22:43:13.070Z,0.58
2019-02-11T22:45:42.180Z,0.71
2019-02-11T22:48:11.259Z,0.69
2019-02-11T22:50:43.151Z,0.56
2019-02-11T22:53:11.181Z,0.42
2019-02-11T22:55:40.290Z,0.52
2019-02-11T22:58:09.367Z,0.35
2019-02-11T23:00:54.397Z,0.46
2019-02-11T23:03:23.494Z,0.28
2019-02-11T23:05:52.627Z,0.32
2019-02-11T23:08:21.708Z,0.25
2019-02-11T23:10:50.804Z,0.38
2019-02-11T23:13:19.888Z,0.54
2019-02-11T23:15:49.015Z,0.42
2019-02-11T23:18:18.092Z,0.47
2019-02-11T23:20:52.193Z,0.48
2019-02-11T23:23:17.990Z,0.49
2019-02-11T23:25:47.092Z,0.55
2019-02-11T23:28:16.176Z,0.50
2019-02-11T23:30:45.283Z,0.47
2019-02-11T23:33:14.364Z,0.42
2019-02-11T23:35:43.533Z,0.27
2019-02-11T23:38:12.559Z,0.24
2019-02-11T23:40:41.664Z,0.25
2019-02-11T23:43:10.857Z,0.24
2019-02-11T23:45:39.941Z,0.23
2019-02-11T23:48:09.044Z,0.13
2019-02-11T23:50:38.133Z,0.05
2019-02-11T23:53:07.240Z,0.17
2019-02-11T23:55:36.328Z,0.15
2019-02-11T23:58:05.447Z,0.27
